Sandy Hook, Connecticut
Current Conditions -  °F | °C
As of 6:50 PM on Monday 22 Dec 2014 (Local Time) from KOXC Reporting Station
Overcast Overcast  
Wind Chill: 36°   Ceiling: 1600
Heat Index: 39°   Visibility: 10mi
Dew Point: 30°   Wind: 5mph
Humidity: 70%   Direction: 90°E
Pressure: 30.26"   Gusts: NA
Location:  41.42°N, 73.28°W
Report Text: KOXC 222350Z 09004KT 10SM BKN016 OVC022 04/M01 A3026
Loading
Personal Weather Stations






























Interactive Weather Map New forecast layout! Learn more

10-Day Weather Forecast

Advertisements
Track Severe Weather on mobile